< < Back
Terminal Aerodrome Forecast


Current Version              Previous Versions:   1  2  3  4  5  6  7  8  9  

Terminal Aerodrome Forecast

297
FTUS42 KFFC 280331 AAA
TAFFTY
TAF AMD
KFTY 280331Z 2803/2824 32006KT P6SM BKN040
     FM280600 32005KT P6SM SCT040
     FM281200 30005KT P6SM SKC
     FM282100 25006KT P6SM SKC=



Latest METAR

891
SAUS70 KWBC 290500
MTRFTY
METAR KFTY 290453Z 00000KT 10SM CLR M01/M04 A3027 RMK AO2 SLP255
T10111044 401001028


USA.gov is the U.S. government's official web portal to all federal, state and local government web resources and services.